sensor_id;sensor_type;location;lat;lon;timestamp;P1;durP1;ratioP1;P2;durP2;ratioP2
51618;SDS011;38518;53.164;5.430;2022-12-05T00:00:47;33.17;;;19.27;;
51618;SDS011;38518;53.164;5.430;2022-12-05T00:03:12;36.80;;;23.55;;
51618;SDS011;38518;53.164;5.430;2022-12-05T00:05:39;34.78;;;26.55;;
51618;SDS011;38518;53.164;5.430;2022-12-05T00:08:05;30.42;;;25.20;;
51618;SDS011;38518;53.164;5.430;2022-12-05T00:10:31;31.90;;;19.60;;
51618;SDS011;38518;53.164;5.430;2022-12-05T00:12:59;33.25;;;25.17;;
51618;SDS011;38518;53.164;5.430;2022-12-05T00:15:25;34.20;;;20.77;;
51618;SDS011;38518;53.164;5.430;2022-12-05T00:17:51;32.70;;;25.33;;
51618;SDS011;38518;53.164;5.430;2022-12-05T00:20:16;33.00;;;19.65;;
51618;SDS011;38518;53.164;5.430;2022-12-05T00:22:42;32.60;;;24.75;;
51618;SDS011;38518;53.164;5.430;2022-12-05T00:25:08;33.17;;;20.80;;
51618;SDS011;38518;53.164;5.430;2022-12-05T00:27:34;32.90;;;25.00;;
51618;SDS011;38518;53.164;5.430;2022-12-05T00:30:00;32.05;;;25.98;;
51618;SDS011;38518;53.164;5.430;2022-12-05T00:32:29;32.92;;;25.60;;
51618;SDS011;38518;53.164;5.430;2022-12-05T00:34:55;34.15;;;21.88;;
51618;SDS011;38518;53.164;5.430;2022-12-05T00:37:22;34.75;;;21.60;;
51618;SDS011;38518;53.164;5.430;2022-12-05T00:39:47;34.22;;;26.10;;
51618;SDS011;38518;53.164;5.430;2022-12-05T00:42:13;30.85;;;19.63;;
51618;SDS011;38518;53.164;5.430;2022-12-05T00:44:39;31.95;;;18.92;;
51618;SDS011;38518;53.164;5.430;2022-12-05T00:47:05;30.42;;;24.17;;
51618;SDS011;38518;53.164;5.430;2022-12-05T00:49:31;36.08;;;20.98;;
51618;SDS011;38518;53.164;5.430;2022-12-05T00:51:56;31.73;;;20.13;;
51618;SDS011;38518;53.164;5.430;2022-12-05T00:54:22;30.45;;;22.60;;
51618;SDS011;38518;53.164;5.430;2022-12-05T00:56:48;28.08;;;22.33;;
51618;SDS011;38518;53.164;5.430;2022-12-05T00:59:17;31.70;;;17.90;;
51618;SDS011;38518;53.164;5.430;2022-12-05T01:01:44;29.40;;;22.25;;
51618;SDS011;38518;53.164;5.430;2022-12-05T01:04:12;29.25;;;18.58;;
51618;SDS011;38518;53.164;5.430;2022-12-05T01:06:43;27.48;;;17.88;;
51618;SDS011;38518;53.164;5.430;2022-12-05T01:09:10;24.73;;;16.10;;
51618;SDS011;38518;53.164;5.430;2022-12-05T01:11:37;25.92;;;16.02;;
51618;SDS011;38518;53.164;5.430;2022-12-05T01:14:03;25.90;;;16.67;;
51618;SDS011;38518;53.164;5.430;2022-12-05T01:16:31;25.90;;;21.00;;
51618;SDS011;38518;53.164;5.430;2022-12-05T01:18:59;26.77;;;21.45;;
51618;SDS011;38518;53.164;5.430;2022-12-05T01:21:27;24.60;;;20.15;;
51618;SDS011;38518;53.164;5.430;2022-12-05T01:23:53;26.40;;;15.77;;
51618;SDS011;38518;53.164;5.430;2022-12-05T01:26:20;25.52;;;20.98;;
51618;SDS011;38518;53.164;5.430;2022-12-05T01:28:46;27.27;;;18.15;;
51618;SDS011;38518;53.164;5.430;2022-12-05T01:31:28;26.77;;;17.05;;
51618;SDS011;38518;53.164;5.430;2022-12-05T01:33:57;27.05;;;21.48;;
51618;SDS011;38518;53.164;5.430;2022-12-05T01:36:25;28.90;;;23.10;;
51618;SDS011;38518;53.164;5.430;2022-12-05T01:38:51;30.90;;;19.00;;
51618;SDS011;38518;53.164;5.430;2022-12-05T01:41:19;30.83;;;23.90;;
51618;SDS011;38518;53.164;5.430;2022-12-05T01:43:54;28.88;;;23.40;;
51618;SDS011;38518;53.164;5.430;2022-12-05T01:46:24;27.85;;;19.08;;
51618;SDS011;38518;53.164;5.430;2022-12-05T01:48:50;29.08;;;23.67;;
51618;SDS011;38518;53.164;5.430;2022-12-05T01:51:19;30.83;;;20.65;;
51618;SDS011;38518;53.164;5.430;2022-12-05T01:53:45;32.05;;;25.55;;
51618;SDS011;38518;53.164;5.430;2022-12-05T01:56:11;29.80;;;19.70;;
51618;SDS011;38518;53.164;5.430;2022-12-05T01:58:37;32.80;;;19.92;;
51618;SDS011;38518;53.164;5.430;2022-12-05T02:01:06;32.70;;;20.95;;
51618;SDS011;38518;53.164;5.430;2022-12-05T02:03:32;28.77;;;22.85;;
51618;SDS011;38518;53.164;5.430;2022-12-05T02:05:59;29.33;;;18.67;;
51618;SDS011;38518;53.164;5.430;2022-12-05T02:08:27;29.90;;;24.48;;
51618;SDS011;38518;53.164;5.430;2022-12-05T02:10:54;33.72;;;19.27;;
51618;SDS011;38518;53.164;5.430;2022-12-05T02:19:03;31.45;;;18.77;;
51618;SDS011;38518;53.164;5.430;2022-12-05T02:30:09;29.73;;;18.77;;
51618;SDS011;38518;53.164;5.430;2022-12-05T02:35:24;27.25;;;17.35;;
51618;SDS011;38518;53.164;5.430;2022-12-05T02:37:59;33.67;;;19.77;;
51618;SDS011;38518;53.164;5.430;2022-12-05T02:40:34;33.03;;;22.13;;
51618;SDS011;38518;53.164;5.430;2022-12-05T02:45:42;30.55;;;17.17;;
51618;SDS011;38518;53.164;5.430;2022-12-05T02:48:11;30.05;;;21.95;;
51618;SDS011;38518;53.164;5.430;2022-12-05T02:50:39;27.75;;;19.77;;
51618;SDS011;38518;53.164;5.430;2022-12-05T02:53:08;20.05;;;13.18;;
51618;SDS011;38518;53.164;5.430;2022-12-05T02:55:37;24.83;;;18.67;;
51618;SDS011;38518;53.164;5.430;2022-12-05T02:58:06;23.88;;;15.13;;
51618;SDS011;38518;53.164;5.430;2022-12-05T03:00:42;23.27;;;14.73;;
51618;SDS011;38518;53.164;5.430;2022-12-05T03:03:11;26.05;;;14.77;;
51618;SDS011;38518;53.164;5.430;2022-12-05T03:06:26;23.85;;;13.60;;
51618;SDS011;38518;53.164;5.430;2022-12-05T03:08:34;23.88;;;16.08;;
51618;SDS011;38518;53.164;5.430;2022-12-05T03:11:05;22.25;;;12.80;;
51618;SDS011;38518;53.164;5.430;2022-12-05T03:13:39;21.33;;;15.02;;
51618;SDS011;38518;53.164;5.430;2022-12-05T03:16:20;22.08;;;12.48;;
51618;SDS011;38518;53.164;5.430;2022-12-05T03:18:55;19.00;;;10.57;;
51618;SDS011;38518;53.164;5.430;2022-12-05T03:23:55;20.70;;;13.05;;
51618;SDS011;38518;53.164;5.430;2022-12-05T03:36:58;19.20;;;13.25;;
51618;SDS011;38518;53.164;5.430;2022-12-05T03:39:32;16.13;;;10.55;;
51618;SDS011;38518;53.164;5.430;2022-12-05T03:42:06;23.02;;;14.35;;
51618;SDS011;38518;53.164;5.430;2022-12-05T03:44:52;16.75;;;10.65;;
51618;SDS011;38518;53.164;5.430;2022-12-05T03:47:25;21.08;;;13.40;;
51618;SDS011;38518;53.164;5.430;2022-12-05T03:50:27;20.55;;;13.00;;
51618;SDS011;38518;53.164;5.430;2022-12-05T03:52:56;24.60;;;10.55;;
51618;SDS011;38518;53.164;5.430;2022-12-05T03:55:34;16.45;;;10.32;;
51618;SDS011;38518;53.164;5.430;2022-12-05T03:58:08;17.95;;;12.82;;
51618;SDS011;38518;53.164;5.430;2022-12-05T04:00:38;18.67;;;11.57;;
51618;SDS011;38518;53.164;5.430;2022-12-05T04:05:42;18.40;;;10.15;;
51618;SDS011;38518;53.164;5.430;2022-12-05T04:08:25;16.50;;;9.02;;
51618;SDS011;38518;53.164;5.430;2022-12-05T04:11:05;16.63;;;10.65;;
51618;SDS011;38518;53.164;5.430;2022-12-05T04:13:38;16.13;;;10.00;;
51618;SDS011;38518;53.164;5.430;2022-12-05T04:16:13;16.85;;;9.43;;
51618;SDS011;38518;53.164;5.430;2022-12-05T04:19:04;24.58;;;9.80;;
51618;SDS011;38518;53.164;5.430;2022-12-05T04:22:20;18.73;;;9.88;;
51618;SDS011;38518;53.164;5.430;2022-12-05T04:24:49;16.77;;;9.38;;
51618;SDS011;38518;53.164;5.430;2022-12-05T04:27:39;18.05;;;11.85;;
51618;SDS011;38518;53.164;5.430;2022-12-05T04:35:46;13.88;;;8.77;;
51618;SDS011;38518;53.164;5.430;2022-12-05T04:38:28;18.02;;;10.55;;
51618;SDS011;38518;53.164;5.430;2022-12-05T04:43:37;17.13;;;8.30;;
51618;SDS011;38518;53.164;5.430;2022-12-05T04:46:06;20.83;;;11.38;;
51618;SDS011;38518;53.164;5.430;2022-12-05T04:48:34;15.57;;;8.73;;
51618;SDS011;38518;53.164;5.430;2022-12-05T04:51:03;15.07;;;10.80;;
51618;SDS011;38518;53.164;5.430;2022-12-05T04:53:33;16.67;;;10.82;;
51618;SDS011;38518;53.164;5.430;2022-12-05T04:56:01;18.83;;;9.00;;
51618;SDS011;38518;53.164;5.430;2022-12-05T04:58:29;18.80;;;11.18;;
51618;SDS011;38518;53.164;5.430;2022-12-05T05:00:58;19.75;;;10.05;;
51618;SDS011;38518;53.164;5.430;2022-12-05T05:03:43;19.80;;;9.82;;
51618;SDS011;38518;53.164;5.430;2022-12-05T05:06:15;15.98;;;11.85;;
51618;SDS011;38518;53.164;5.430;2022-12-05T05:08:49;18.58;;;12.07;;
51618;SDS011;38518;53.164;5.430;2022-12-05T05:11:30;15.75;;;11.57;;
51618;SDS011;38518;53.164;5.430;2022-12-05T05:13:58;20.35;;;10.45;;
51618;SDS011;38518;53.164;5.430;2022-12-05T05:16:31;18.63;;;13.35;;
51618;SDS011;38518;53.164;5.430;2022-12-05T05:19:01;18.75;;;12.27;;
51618;SDS011;38518;53.164;5.430;2022-12-05T05:21:28;19.58;;;12.38;;
51618;SDS011;38518;53.164;5.430;2022-12-05T05:23:56;18.27;;;10.77;;
51618;SDS011;38518;53.164;5.430;2022-12-05T05:26:22;21.25;;;10.50;;
51618;SDS011;38518;53.164;5.430;2022-12-05T05:28:49;18.88;;;11.93;;
51618;SDS011;38518;53.164;5.430;2022-12-05T05:31:16;16.83;;;11.10;;
51618;SDS011;38518;53.164;5.430;2022-12-05T05:33:42;19.20;;;10.30;;
51618;SDS011;38518;53.164;5.430;2022-12-05T05:36:10;19.88;;;10.95;;
51618;SDS011;38518;53.164;5.430;2022-12-05T05:38:42;19.95;;;12.60;;
51618;SDS011;38518;53.164;5.430;2022-12-05T05:41:13;21.27;;;10.40;;
51618;SDS011;38518;53.164;5.430;2022-12-05T05:43:41;22.90;;;13.00;;
51618;SDS011;38518;53.164;5.430;2022-12-05T05:46:08;20.77;;;10.07;;
51618;SDS011;38518;53.164;5.430;2022-12-05T05:48:34;20.80;;;13.02;;
51618;SDS011;38518;53.164;5.430;2022-12-05T05:51:00;23.02;;;10.95;;
51618;SDS011;38518;53.164;5.430;2022-12-05T05:53:27;18.88;;;9.95;;
51618;SDS011;38518;53.164;5.430;2022-12-05T05:55:53;22.63;;;12.85;;
51618;SDS011;38518;53.164;5.430;2022-12-05T05:58:19;23.65;;;13.48;;
51618;SDS011;38518;53.164;5.430;2022-12-05T06:00:45;19.92;;;12.68;;
51618;SDS011;38518;53.164;5.430;2022-12-05T06:03:11;22.95;;;13.32;;
51618;SDS011;38518;53.164;5.430;2022-12-05T06:05:36;19.70;;;10.50;;
51618;SDS011;38518;53.164;5.430;2022-12-05T06:08:02;21.58;;;10.95;;
51618;SDS011;38518;53.164;5.430;2022-12-05T06:10:29;19.15;;;9.95;;
51618;SDS011;38518;53.164;5.430;2022-12-05T06:12:55;19.65;;;10.73;;
51618;SDS011;38518;53.164;5.430;2022-12-05T06:15:21;20.38;;;10.75;;
51618;SDS011;38518;53.164;5.430;2022-12-05T06:17:47;15.65;;;8.48;;
51618;SDS011;38518;53.164;5.430;2022-12-05T06:20:13;22.15;;;12.52;;
51618;SDS011;38518;53.164;5.430;2022-12-05T06:22:39;19.80;;;10.05;;
51618;SDS011;38518;53.164;5.430;2022-12-05T06:25:05;21.13;;;13.20;;
51618;SDS011;38518;53.164;5.430;2022-12-05T06:27:31;18.00;;;9.60;;
51618;SDS011;38518;53.164;5.430;2022-12-05T06:29:57;25.05;;;11.05;;
51618;SDS011;38518;53.164;5.430;2022-12-05T06:32:23;18.52;;;10.32;;
51618;SDS011;38518;53.164;5.430;2022-12-05T06:34:49;23.02;;;12.77;;
51618;SDS011;38518;53.164;5.430;2022-12-05T06:37:14;18.67;;;10.45;;
51618;SDS011;38518;53.164;5.430;2022-12-05T06:39:40;19.98;;;10.40;;
51618;SDS011;38518;53.164;5.430;2022-12-05T06:42:06;25.17;;;13.50;;
51618;SDS011;38518;53.164;5.430;2022-12-05T06:44:32;23.40;;;13.43;;
51618;SDS011;38518;53.164;5.430;2022-12-05T06:46:57;18.98;;;11.38;;
51618;SDS011;38518;53.164;5.430;2022-12-05T06:49:23;24.05;;;14.35;;
51618;SDS011;38518;53.164;5.430;2022-12-05T06:51:51;23.17;;;10.35;;
51618;SDS011;38518;53.164;5.430;2022-12-05T06:54:18;22.10;;;12.75;;
51618;SDS011;38518;53.164;5.430;2022-12-05T06:56:43;23.65;;;12.75;;
51618;SDS011;38518;53.164;5.430;2022-12-05T06:59:09;20.63;;;12.13;;
51618;SDS011;38518;53.164;5.430;2022-12-05T07:01:35;21.73;;;9.93;;
51618;SDS011;38518;53.164;5.430;2022-12-05T07:04:14;23.67;;;12.77;;
51618;SDS011;38518;53.164;5.430;2022-12-05T07:06:44;21.58;;;12.70;;
51618;SDS011;38518;53.164;5.430;2022-12-05T07:09:13;20.65;;;9.90;;
51618;SDS011;38518;53.164;5.430;2022-12-05T07:11:39;23.15;;;11.73;;
51618;SDS011;38518;53.164;5.430;2022-12-05T07:14:05;19.88;;;9.73;;
51618;SDS011;38518;53.164;5.430;2022-12-05T07:16:34;19.23;;;11.60;;
51618;SDS011;38518;53.164;5.430;2022-12-05T07:19:00;18.25;;;9.32;;
51618;SDS011;38518;53.164;5.430;2022-12-05T07:21:25;19.00;;;8.77;;
51618;SDS011;38518;53.164;5.430;2022-12-05T07:23:51;14.30;;;7.93;;
51618;SDS011;38518;53.164;5.430;2022-12-05T07:26:19;24.67;;;11.43;;
51618;SDS011;38518;53.164;5.430;2022-12-05T07:28:46;17.13;;;9.10;;
51618;SDS011;38518;53.164;5.430;2022-12-05T07:31:15;22.55;;;11.02;;
51618;SDS011;38518;53.164;5.430;2022-12-05T07:33:46;22.60;;;11.60;;
51618;SDS011;38518;53.164;5.430;2022-12-05T07:36:13;18.98;;;9.45;;
51618;SDS011;38518;53.164;5.430;2022-12-05T07:38:40;18.00;;;11.00;;
51618;SDS011;38518;53.164;5.430;2022-12-05T07:41:08;24.38;;;10.02;;
51618;SDS011;38518;53.164;5.430;2022-12-05T07:43:49;17.25;;;10.73;;
51618;SDS011;38518;53.164;5.430;2022-12-05T07:46:16;21.45;;;9.18;;
51618;SDS011;38518;53.164;5.430;2022-12-05T07:48:42;23.58;;;11.63;;
51618;SDS011;38518;53.164;5.430;2022-12-05T07:51:08;17.00;;;8.90;;
51618;SDS011;38518;53.164;5.430;2022-12-05T07:53:35;20.30;;;8.43;;
51618;SDS011;38518;53.164;5.430;2022-12-05T07:56:02;21.13;;;10.93;;
51618;SDS011;38518;53.164;5.430;2022-12-05T07:58:30;15.00;;;8.02;;
51618;SDS011;38518;53.164;5.430;2022-12-05T08:00:56;18.10;;;11.15;;
51618;SDS011;38518;53.164;5.430;2022-12-05T08:03:30;18.52;;;8.80;;
51618;SDS011;38518;53.164;5.430;2022-12-05T08:05:59;19.27;;;10.90;;
51618;SDS011;38518;53.164;5.430;2022-12-05T08:08:28;19.20;;;11.45;;
51618;SDS011;38518;53.164;5.430;2022-12-05T08:10:54;18.98;;;11.30;;
51618;SDS011;38518;53.164;5.430;2022-12-05T08:13:20;18.25;;;10.85;;
51618;SDS011;38518;53.164;5.430;2022-12-05T08:15:46;19.42;;;12.45;;
51618;SDS011;38518;53.164;5.430;2022-12-05T08:18:11;24.40;;;10.77;;
51618;SDS011;38518;53.164;5.430;2022-12-05T08:20:40;20.42;;;9.88;;
51618;SDS011;38518;53.164;5.430;2022-12-05T08:23:06;23.20;;;11.88;;
51618;SDS011;38518;53.164;5.430;2022-12-05T08:25:32;20.40;;;9.57;;
51618;SDS011;38518;53.164;5.430;2022-12-05T08:27:58;22.92;;;10.30;;
51618;SDS011;38518;53.164;5.430;2022-12-05T08:30:24;25.75;;;9.50;;
51618;SDS011;38518;53.164;5.430;2022-12-05T08:32:50;21.23;;;9.82;;
51618;SDS011;38518;53.164;5.430;2022-12-05T08:35:18;20.40;;;10.32;;
51618;SDS011;38518;53.164;5.430;2022-12-05T08:37:44;22.33;;;10.85;;
51618;SDS011;38518;53.164;5.430;2022-12-05T08:40:10;21.95;;;11.27;;
51618;SDS011;38518;53.164;5.430;2022-12-05T08:42:38;20.10;;;10.27;;
51618;SDS011;38518;53.164;5.430;2022-12-05T08:45:04;19.52;;;11.25;;
51618;SDS011;38518;53.164;5.430;2022-12-05T08:47:30;16.33;;;8.55;;
51618;SDS011;38518;53.164;5.430;2022-12-05T08:49:56;24.40;;;10.48;;
51618;SDS011;38518;53.164;5.430;2022-12-05T08:52:22;20.20;;;9.82;;
51618;SDS011;38518;53.164;5.430;2022-12-05T08:54:48;18.83;;;10.20;;
51618;SDS011;38518;53.164;5.430;2022-12-05T08:57:13;19.52;;;11.95;;
51618;SDS011;38518;53.164;5.430;2022-12-05T08:59:39;16.77;;;8.27;;
51618;SDS011;38518;53.164;5.430;2022-12-05T09:02:05;19.98;;;10.38;;
51618;SDS011;38518;53.164;5.430;2022-12-05T09:04:32;20.48;;;11.00;;
51618;SDS011;38518;53.164;5.430;2022-12-05T09:07:00;16.63;;;8.88;;
51618;SDS011;38518;53.164;5.430;2022-12-05T09:09:26;15.35;;;8.35;;
51618;SDS011;38518;53.164;5.430;2022-12-05T09:11:52;21.08;;;9.82;;
51618;SDS011;38518;53.164;5.430;2022-12-05T09:14:18;14.77;;;8.82;;
51618;SDS011;38518;53.164;5.430;2022-12-05T09:16:44;16.63;;;7.70;;
51618;SDS011;38518;53.164;5.430;2022-12-05T09:19:18;16.73;;;7.65;;
51618;SDS011;38518;53.164;5.430;2022-12-05T09:21:51;16.73;;;7.97;;
51618;SDS011;38518;53.164;5.430;2022-12-05T09:24:18;13.25;;;6.97;;
51618;SDS011;38518;53.164;5.430;2022-12-05T09:26:44;18.23;;;9.00;;
51618;SDS011;38518;53.164;5.430;2022-12-05T09:29:13;16.92;;;9.02;;
51618;SDS011;38518;53.164;5.430;2022-12-05T09:31:39;20.98;;;8.00;;
51618;SDS011;38518;53.164;5.430;2022-12-05T09:34:07;15.77;;;7.78;;
51618;SDS011;38518;53.164;5.430;2022-12-05T09:36:36;21.60;;;8.70;;
51618;SDS011;38518;53.164;5.430;2022-12-05T09:39:03;22.52;;;9.63;;
51618;SDS011;38518;53.164;5.430;2022-12-05T09:55:19;17.10;;;8.53;;
51618;SDS011;38518;53.164;5.430;2022-12-05T09:57:50;15.93;;;9.60;;
51618;SDS011;38518;53.164;5.430;2022-12-05T10:00:20;20.93;;;8.53;;
51618;SDS011;38518;53.164;5.430;2022-12-05T10:10:38;18.85;;;9.50;;
51618;SDS011;38518;53.164;5.430;2022-12-05T10:13:20;16.80;;;8.52;;
51618;SDS011;38518;53.164;5.430;2022-12-05T10:15:51;21.52;;;10.00;;
51618;SDS011;38518;53.164;5.430;2022-12-05T10:24:04;19.02;;;8.50;;
51618;SDS011;38518;53.164;5.430;2022-12-05T10:26:47;18.60;;;9.55;;
51618;SDS011;38518;53.164;5.430;2022-12-05T10:31:44;19.92;;;10.45;;
51618;SDS011;38518;53.164;5.430;2022-12-05T10:36:38;20.67;;;9.38;;
51618;SDS011;38518;53.164;5.430;2022-12-05T10:39:09;15.98;;;9.65;;
51618;SDS011;38518;53.164;5.430;2022-12-05T10:41:35;16.15;;;8.68;;
51618;SDS011;38518;53.164;5.430;2022-12-05T10:44:01;17.75;;;9.88;;
51618;SDS011;38518;53.164;5.430;2022-12-05T10:46:26;20.15;;;10.18;;
51618;SDS011;38518;53.164;5.430;2022-12-05T10:48:55;18.65;;;10.65;;
51618;SDS011;38518;53.164;5.430;2022-12-05T10:51:23;16.67;;;9.57;;
51618;SDS011;38518;53.164;5.430;2022-12-05T10:53:51;21.58;;;11.00;;
51618;SDS011;38518;53.164;5.430;2022-12-05T10:56:38;16.80;;;11.10;;
51618;SDS011;38518;53.164;5.430;2022-12-05T10:59:16;25.20;;;9.60;;
51618;SDS011;38518;53.164;5.430;2022-12-05T11:01:53;22.75;;;11.48;;
51618;SDS011;38518;53.164;5.430;2022-12-05T11:04:21;24.63;;;14.80;;
51618;SDS011;38518;53.164;5.430;2022-12-05T11:06:57;21.40;;;10.65;;
51618;SDS011;38518;53.164;5.430;2022-12-05T11:09:34;20.65;;;11.30;;
51618;SDS011;38518;53.164;5.430;2022-12-05T11:12:21;17.17;;;9.85;;
51618;SDS011;38518;53.164;5.430;2022-12-05T11:17:49;21.75;;;10.95;;
51618;SDS011;38518;53.164;5.430;2022-12-05T11:22:45;22.20;;;8.93;;
51618;SDS011;38518;53.164;5.430;2022-12-05T11:25:25;20.65;;;10.65;;
51618;SDS011;38518;53.164;5.430;2022-12-05T11:27:59;19.70;;;8.98;;
51618;SDS011;38518;53.164;5.430;2022-12-05T11:31:02;21.00;;;12.38;;
51618;SDS011;38518;53.164;5.430;2022-12-05T11:33:40;20.77;;;12.82;;
51618;SDS011;38518;53.164;5.430;2022-12-05T11:36:13;20.42;;;10.15;;
51618;SDS011;38518;53.164;5.430;2022-12-05T11:38:44;30.50;;;13.77;;
51618;SDS011;38518;53.164;5.430;2022-12-05T11:51:47;23.25;;;11.65;;
51618;SDS011;38518;53.164;5.430;2022-12-05T12:13:50;18.65;;;7.78;;
51618;SDS011;38518;53.164;5.430;2022-12-05T12:19:10;27.65;;;9.55;;
51618;SDS011;38518;53.164;5.430;2022-12-05T12:33:18;23.15;;;10.05;;
51618;SDS011;38518;53.164;5.430;2022-12-05T12:38:39;17.27;;;7.57;;
51618;SDS011;38518;53.164;5.430;2022-12-05T12:47:00;21.10;;;10.68;;
51618;SDS011;38518;53.164;5.430;2022-12-05T12:52:13;25.35;;;12.80;;
51618;SDS011;38518;53.164;5.430;2022-12-05T12:58:11;21.42;;;11.70;;
51618;SDS011;38518;53.164;5.430;2022-12-05T13:04:27;16.08;;;9.23;;
51618;SDS011;38518;53.164;5.430;2022-12-05T13:06:59;20.67;;;9.07;;
51618;SDS011;38518;53.164;5.430;2022-12-05T13:09:37;16.33;;;8.33;;
51618;SDS011;38518;53.164;5.430;2022-12-05T13:12:11;22.05;;;8.50;;
51618;SDS011;38518;53.164;5.430;2022-12-05T13:14:44;21.30;;;9.45;;
51618;SDS011;38518;53.164;5.430;2022-12-05T13:17:23;24.85;;;8.80;;
51618;SDS011;38518;53.164;5.430;2022-12-05T13:19:50;18.67;;;7.72;;
51618;SDS011;38518;53.164;5.430;2022-12-05T13:22:17;20.60;;;8.23;;
51618;SDS011;38518;53.164;5.430;2022-12-05T13:24:46;21.70;;;7.97;;
51618;SDS011;38518;53.164;5.430;2022-12-05T13:27:15;20.85;;;9.95;;
51618;SDS011;38518;53.164;5.430;2022-12-05T13:29:47;23.65;;;9.95;;
51618;SDS011;38518;53.164;5.430;2022-12-05T13:34:52;18.27;;;9.52;;
51618;SDS011;38518;53.164;5.430;2022-12-05T13:37:25;15.15;;;8.02;;
51618;SDS011;38518;53.164;5.430;2022-12-05T13:40:23;17.55;;;7.57;;
51618;SDS011;38518;53.164;5.430;2022-12-05T13:43:13;15.43;;;8.07;;
51618;SDS011;38518;53.164;5.430;2022-12-05T13:45:53;15.18;;;7.80;;
51618;SDS011;38518;53.164;5.430;2022-12-05T13:48:34;17.70;;;8.00;;
51618;SDS011;38518;53.164;5.430;2022-12-05T13:54:02;14.45;;;8.13;;
51618;SDS011;38518;53.164;5.430;2022-12-05T13:56:52;14.63;;;7.35;;
51618;SDS011;38518;53.164;5.430;2022-12-05T14:03:05;16.10;;;8.88;;
51618;SDS011;38518;53.164;5.430;2022-12-05T14:07:53;21.55;;;10.27;;
51618;SDS011;38518;53.164;5.430;2022-12-05T14:12:53;16.02;;;7.03;;
51618;SDS011;38518;53.164;5.430;2022-12-05T14:15:24;16.38;;;8.80;;
51618;SDS011;38518;53.164;5.430;2022-12-05T14:18:39;16.42;;;6.82;;
51618;SDS011;38518;53.164;5.430;2022-12-05T14:29:30;15.80;;;9.02;;
51618;SDS011;38518;53.164;5.430;2022-12-05T14:32:35;17.58;;;9.95;;
51618;SDS011;38518;53.164;5.430;2022-12-05T14:35:09;10.05;;;6.50;;
51618;SDS011;38518;53.164;5.430;2022-12-05T14:37:36;13.85;;;8.10;;
51618;SDS011;38518;53.164;5.430;2022-12-05T14:42:59;19.35;;;10.07;;
51618;SDS011;38518;53.164;5.430;2022-12-05T14:48:01;23.95;;;12.20;;
51618;SDS011;38518;53.164;5.430;2022-12-05T14:50:51;23.83;;;9.90;;
51618;SDS011;38518;53.164;5.430;2022-12-05T15:03:42;20.35;;;8.52;;
51618;SDS011;38518;53.164;5.430;2022-12-05T15:06:21;20.35;;;10.80;;
51618;SDS011;38518;53.164;5.430;2022-12-05T15:08:50;21.30;;;9.38;;
51618;SDS011;38518;53.164;5.430;2022-12-05T15:11:22;24.92;;;11.68;;
51618;SDS011;38518;53.164;5.430;2022-12-05T15:13:56;23.35;;;9.57;;
51618;SDS011;38518;53.164;5.430;2022-12-05T15:16:42;23.10;;;12.45;;
51618;SDS011;38518;53.164;5.430;2022-12-05T15:19:17;25.13;;;12.60;;
51618;SDS011;38518;53.164;5.430;2022-12-05T15:21:56;25.83;;;10.82;;
51618;SDS011;38518;53.164;5.430;2022-12-05T15:24:24;30.52;;;13.88;;
51618;SDS011;38518;53.164;5.430;2022-12-05T15:26:53;27.13;;;11.27;;
51618;SDS011;38518;53.164;5.430;2022-12-05T15:37:16;25.10;;;10.27;;
51618;SDS011;38518;53.164;5.430;2022-12-05T15:42:22;27.48;;;13.15;;
51618;SDS011;38518;53.164;5.430;2022-12-05T15:44:50;25.13;;;11.43;;
51618;SDS011;38518;53.164;5.430;2022-12-05T15:47:20;28.88;;;13.30;;
51618;SDS011;38518;53.164;5.430;2022-12-05T15:49:47;22.05;;;10.45;;
51618;SDS011;38518;53.164;5.430;2022-12-05T15:54:54;27.33;;;11.65;;
51618;SDS011;38518;53.164;5.430;2022-12-05T15:57:59;23.40;;;10.02;;
51618;SDS011;38518;53.164;5.430;2022-12-05T16:00:28;20.27;;;8.32;;
51618;SDS011;38518;53.164;5.430;2022-12-05T16:02:59;23.40;;;9.65;;
51618;SDS011;38518;53.164;5.430;2022-12-05T16:05:32;21.60;;;10.73;;
51618;SDS011;38518;53.164;5.430;2022-12-05T16:08:11;18.63;;;8.73;;
51618;SDS011;38518;53.164;5.430;2022-12-05T16:10:37;21.85;;;10.88;;
51618;SDS011;38518;53.164;5.430;2022-12-05T16:13:04;15.20;;;8.13;;
51618;SDS011;38518;53.164;5.430;2022-12-05T16:15:35;21.05;;;8.07;;
51618;SDS011;38518;53.164;5.430;2022-12-05T16:18:02;24.65;;;12.00;;
51618;SDS011;38518;53.164;5.430;2022-12-05T16:20:34;21.40;;;11.25;;
51618;SDS011;38518;53.164;5.430;2022-12-05T16:23:02;20.95;;;9.88;;
51618;SDS011;38518;53.164;5.430;2022-12-05T16:25:34;27.08;;;12.65;;
51618;SDS011;38518;53.164;5.430;2022-12-05T16:30:33;20.23;;;10.95;;
51618;SDS011;38518;53.164;5.430;2022-12-05T16:33:04;19.05;;;11.15;;
51618;SDS011;38518;53.164;5.430;2022-12-05T16:35:41;18.38;;;8.13;;
51618;SDS011;38518;53.164;5.430;2022-12-05T16:43:17;22.55;;;12.10;;
51618;SDS011;38518;53.164;5.430;2022-12-05T16:45:54;20.60;;;11.05;;
51618;SDS011;38518;53.164;5.430;2022-12-05T16:48:23;29.42;;;12.43;;
51618;SDS011;38518;53.164;5.430;2022-12-05T16:51:13;22.38;;;9.35;;
51618;SDS011;38518;53.164;5.430;2022-12-05T16:53:36;19.00;;;8.30;;
51618;SDS011;38518;53.164;5.430;2022-12-05T16:56:03;20.48;;;10.77;;
51618;SDS011;38518;53.164;5.430;2022-12-05T16:58:31;19.30;;;10.00;;
51618;SDS011;38518;53.164;5.430;2022-12-05T17:01:00;20.63;;;10.13;;
51618;SDS011;38518;53.164;5.430;2022-12-05T17:03:27;19.25;;;9.85;;
51618;SDS011;38518;53.164;5.430;2022-12-05T17:05:53;26.52;;;8.82;;
51618;SDS011;38518;53.164;5.430;2022-12-05T17:08:20;18.33;;;8.48;;
51618;SDS011;38518;53.164;5.430;2022-12-05T17:10:46;20.27;;;9.95;;
51618;SDS011;38518;53.164;5.430;2022-12-05T17:13:13;18.65;;;10.38;;
51618;SDS011;38518;53.164;5.430;2022-12-05T17:15:40;19.25;;;7.45;;
51618;SDS011;38518;53.164;5.430;2022-12-05T17:18:10;18.52;;;10.05;;
51618;SDS011;38518;53.164;5.430;2022-12-05T17:20:39;19.00;;;9.88;;
51618;SDS011;38518;53.164;5.430;2022-12-05T17:23:08;15.63;;;8.40;;
51618;SDS011;38518;53.164;5.430;2022-12-05T17:25:40;25.85;;;10.75;;
51618;SDS011;38518;53.164;5.430;2022-12-05T17:30:40;21.77;;;8.85;;
51618;SDS011;38518;53.164;5.430;2022-12-05T17:33:08;15.02;;;7.97;;
51618;SDS011;38518;53.164;5.430;2022-12-05T17:35:35;15.18;;;7.63;;
51618;SDS011;38518;53.164;5.430;2022-12-05T17:38:05;17.35;;;7.70;;
51618;SDS011;38518;53.164;5.430;2022-12-05T17:40:31;18.27;;;8.25;;
51618;SDS011;38518;53.164;5.430;2022-12-05T17:42:58;21.05;;;7.47;;
51618;SDS011;38518;53.164;5.430;2022-12-05T17:45:23;15.70;;;7.35;;
51618;SDS011;38518;53.164;5.430;2022-12-05T17:47:49;15.20;;;7.60;;
51618;SDS011;38518;53.164;5.430;2022-12-05T17:50:17;15.02;;;7.50;;
51618;SDS011;38518;53.164;5.430;2022-12-05T17:52:46;15.02;;;7.80;;
51618;SDS011;38518;53.164;5.430;2022-12-05T17:57:44;18.15;;;8.23;;
51618;SDS011;38518;53.164;5.430;2022-12-05T18:00:10;15.07;;;6.22;;
51618;SDS011;38518;53.164;5.430;2022-12-05T18:02:38;16.85;;;6.70;;
51618;SDS011;38518;53.164;5.430;2022-12-05T18:05:05;11.30;;;5.75;;
51618;SDS011;38518;53.164;5.430;2022-12-05T18:07:31;15.38;;;5.85;;
51618;SDS011;38518;53.164;5.430;2022-12-05T18:09:57;20.83;;;6.60;;
51618;SDS011;38518;53.164;5.430;2022-12-05T18:12:22;15.38;;;6.78;;